sensor_id;sensor_type;location;lat;lon;timestamp;P1;durP1;ratioP1;P2;durP2;ratioP2
20928;SDS011;21895;47.072;15.132;2023-04-07T00:02:03;22.73;;;7.03;;
20928;SDS011;21895;47.072;15.132;2023-04-07T00:04:30;21.13;;;6.90;;
20928;SDS011;21895;47.072;15.132;2023-04-07T00:06:57;12.93;;;5.27;;
20928;SDS011;21895;47.072;15.132;2023-04-07T00:09:23;12.13;;;4.63;;
20928;SDS011;21895;47.072;15.132;2023-04-07T00:11:50;10.83;;;4.67;;
20928;SDS011;21895;47.072;15.132;2023-04-07T00:14:17;15.90;;;5.80;;
20928;SDS011;21895;47.072;15.132;2023-04-07T00:16:43;9.87;;;4.80;;
20928;SDS011;21895;47.072;15.132;2023-04-07T00:19:10;9.53;;;4.17;;
20928;SDS011;21895;47.072;15.132;2023-04-07T00:21:36;11.43;;;4.40;;
20928;SDS011;21895;47.072;15.132;2023-04-07T00:24:03;11.07;;;4.30;;
20928;SDS011;21895;47.072;15.132;2023-04-07T00:26:29;11.83;;;4.80;;
20928;SDS011;21895;47.072;15.132;2023-04-07T00:28:57;9.30;;;4.03;;
20928;SDS011;21895;47.072;15.132;2023-04-07T00:31:24;12.60;;;4.40;;
20928;SDS011;21895;47.072;15.132;2023-04-07T00:33:51;9.50;;;3.87;;
20928;SDS011;21895;47.072;15.132;2023-04-07T00:36:18;7.63;;;3.93;;
20928;SDS011;21895;47.072;15.132;2023-04-07T00:38:45;8.13;;;3.97;;
20928;SDS011;21895;47.072;15.132;2023-04-07T00:41:11;8.63;;;4.37;;
20928;SDS011;21895;47.072;15.132;2023-04-07T00:43:38;8.53;;;4.10;;
20928;SDS011;21895;47.072;15.132;2023-04-07T00:46:04;10.70;;;4.30;;
20928;SDS011;21895;47.072;15.132;2023-04-07T00:48:31;10.83;;;4.60;;
20928;SDS011;21895;47.072;15.132;2023-04-07T00:50:58;12.53;;;4.27;;
20928;SDS011;21895;47.072;15.132;2023-04-07T00:53:24;9.67;;;4.37;;
20928;SDS011;21895;47.072;15.132;2023-04-07T00:55:51;11.77;;;4.73;;
20928;SDS011;21895;47.072;15.132;2023-04-07T00:58:20;23.97;;;7.67;;
20928;SDS011;21895;47.072;15.132;2023-04-07T01:05:58;8.53;;;3.93;;
20928;SDS011;21895;47.072;15.132;2023-04-07T01:08:37;10.60;;;4.47;;
20928;SDS011;21895;47.072;15.132;2023-04-07T01:12:13;10.77;;;4.80;;
20928;SDS011;21895;47.072;15.132;2023-04-07T01:17:27;12.07;;;4.70;;
20928;SDS011;21895;47.072;15.132;2023-04-07T01:19:58;11.93;;;4.50;;
20928;SDS011;21895;47.072;15.132;2023-04-07T01:22:52;10.87;;;4.87;;
20928;SDS011;21895;47.072;15.132;2023-04-07T01:25:25;17.50;;;7.10;;
20928;SDS011;21895;47.072;15.132;2023-04-07T01:32:15;12.83;;;5.17;;
20928;SDS011;21895;47.072;15.132;2023-04-07T01:34:46;9.47;;;4.57;;
20928;SDS011;21895;47.072;15.132;2023-04-07T01:37:16;10.90;;;5.00;;
20928;SDS011;21895;47.072;15.132;2023-04-07T01:39:43;10.70;;;4.77;;
20928;SDS011;21895;47.072;15.132;2023-04-07T01:42:10;11.07;;;5.37;;
20928;SDS011;21895;47.072;15.132;2023-04-07T01:44:39;11.33;;;4.73;;
20928;SDS011;21895;47.072;15.132;2023-04-07T01:47:07;12.67;;;4.97;;
20928;SDS011;21895;47.072;15.132;2023-04-07T01:49:34;9.80;;;4.70;;
20928;SDS011;21895;47.072;15.132;2023-04-07T01:52:03;11.43;;;4.80;;
20928;SDS011;21895;47.072;15.132;2023-04-07T01:54:31;10.43;;;5.37;;
20928;SDS011;21895;47.072;15.132;2023-04-07T01:56:59;9.37;;;4.73;;
20928;SDS011;21895;47.072;15.132;2023-04-07T01:59:26;12.80;;;4.83;;
20928;SDS011;21895;47.072;15.132;2023-04-07T02:01:53;12.13;;;5.20;;
20928;SDS011;21895;47.072;15.132;2023-04-07T02:07:18;12.23;;;5.13;;
20928;SDS011;21895;47.072;15.132;2023-04-07T02:09:55;9.70;;;4.50;;
20928;SDS011;21895;47.072;15.132;2023-04-07T02:12:27;10.57;;;5.00;;
20928;SDS011;21895;47.072;15.132;2023-04-07T02:14:57;11.87;;;4.57;;
20928;SDS011;21895;47.072;15.132;2023-04-07T02:17:26;8.67;;;4.80;;
20928;SDS011;21895;47.072;15.132;2023-04-07T02:19:54;10.50;;;5.30;;
20928;SDS011;21895;47.072;15.132;2023-04-07T02:22:23;10.50;;;4.73;;
20928;SDS011;21895;47.072;15.132;2023-04-07T02:24:51;9.60;;;4.73;;
20928;SDS011;21895;47.072;15.132;2023-04-07T02:27:18;9.67;;;4.53;;
20928;SDS011;21895;47.072;15.132;2023-04-07T02:29:45;15.33;;;5.00;;
20928;SDS011;21895;47.072;15.132;2023-04-07T02:32:11;11.97;;;5.03;;
20928;SDS011;21895;47.072;15.132;2023-04-07T02:34:38;11.30;;;4.73;;
20928;SDS011;21895;47.072;15.132;2023-04-07T02:37:06;12.53;;;5.03;;
20928;SDS011;21895;47.072;15.132;2023-04-07T02:39:32;10.07;;;4.57;;
20928;SDS011;21895;47.072;15.132;2023-04-07T02:41:59;13.63;;;4.47;;
20928;SDS011;21895;47.072;15.132;2023-04-07T02:44:26;11.20;;;5.40;;
20928;SDS011;21895;47.072;15.132;2023-04-07T02:46:52;8.43;;;4.57;;
20928;SDS011;21895;47.072;15.132;2023-04-07T02:49:18;11.07;;;5.00;;
20928;SDS011;21895;47.072;15.132;2023-04-07T02:51:45;11.70;;;5.03;;
20928;SDS011;21895;47.072;15.132;2023-04-07T02:54:11;11.47;;;5.07;;
20928;SDS011;21895;47.072;15.132;2023-04-07T02:56:38;11.27;;;5.27;;
20928;SDS011;21895;47.072;15.132;2023-04-07T02:59:04;8.83;;;4.40;;
20928;SDS011;21895;47.072;15.132;2023-04-07T03:01:31;10.30;;;4.23;;
20928;SDS011;21895;47.072;15.132;2023-04-07T03:03:59;9.63;;;4.73;;
20928;SDS011;21895;47.072;15.132;2023-04-07T03:06:26;12.37;;;4.73;;
20928;SDS011;21895;47.072;15.132;2023-04-07T03:08:52;10.73;;;5.23;;
20928;SDS011;21895;47.072;15.132;2023-04-07T03:11:19;10.87;;;5.20;;
20928;SDS011;21895;47.072;15.132;2023-04-07T03:13:45;11.50;;;5.23;;
20928;SDS011;21895;47.072;15.132;2023-04-07T03:16:12;9.50;;;4.80;;
20928;SDS011;21895;47.072;15.132;2023-04-07T03:18:38;17.00;;;5.57;;
20928;SDS011;21895;47.072;15.132;2023-04-07T03:21:05;10.33;;;4.73;;
20928;SDS011;21895;47.072;15.132;2023-04-07T03:23:31;13.40;;;5.00;;
20928;SDS011;21895;47.072;15.132;2023-04-07T03:25:58;14.47;;;5.13;;
20928;SDS011;21895;47.072;15.132;2023-04-07T03:28:24;9.97;;;5.50;;
20928;SDS011;21895;47.072;15.132;2023-04-07T03:30:51;14.87;;;4.93;;
20928;SDS011;21895;47.072;15.132;2023-04-07T03:33:17;57.90;;;16.33;;
20928;SDS011;21895;47.072;15.132;2023-04-07T03:35:44;23.33;;;8.60;;
20928;SDS011;21895;47.072;15.132;2023-04-07T03:38:11;33.60;;;11.23;;
20928;SDS011;21895;47.072;15.132;2023-04-07T03:40:37;15.87;;;5.80;;
20928;SDS011;21895;47.072;15.132;2023-04-07T03:43:06;16.53;;;6.20;;
20928;SDS011;21895;47.072;15.132;2023-04-07T03:45:37;12.20;;;5.33;;
20928;SDS011;21895;47.072;15.132;2023-04-07T03:48:03;10.90;;;4.53;;
20928;SDS011;21895;47.072;15.132;2023-04-07T03:50:30;10.13;;;4.77;;
20928;SDS011;21895;47.072;15.132;2023-04-07T03:52:57;16.27;;;5.47;;
20928;SDS011;21895;47.072;15.132;2023-04-07T03:55:23;28.57;;;7.50;;
20928;SDS011;21895;47.072;15.132;2023-04-07T03:57:50;20.97;;;7.80;;
20928;SDS011;21895;47.072;15.132;2023-04-07T04:00:17;16.30;;;7.10;;
20928;SDS011;21895;47.072;15.132;2023-04-07T04:02:43;16.83;;;7.10;;
20928;SDS011;21895;47.072;15.132;2023-04-07T04:05:10;10.80;;;4.30;;
20928;SDS011;21895;47.072;15.132;2023-04-07T04:07:36;16.30;;;6.43;;
20928;SDS011;21895;47.072;15.132;2023-04-07T04:10:03;14.00;;;6.43;;
20928;SDS011;21895;47.072;15.132;2023-04-07T04:12:32;17.27;;;7.40;;
20928;SDS011;21895;47.072;15.132;2023-04-07T04:14:58;15.37;;;5.87;;
20928;SDS011;21895;47.072;15.132;2023-04-07T04:17:25;9.80;;;5.00;;
20928;SDS011;21895;47.072;15.132;2023-04-07T04:19:51;17.03;;;6.13;;
20928;SDS011;21895;47.072;15.132;2023-04-07T04:22:19;14.23;;;6.17;;
20928;SDS011;21895;47.072;15.132;2023-04-07T04:24:46;12.73;;;6.00;;
20928;SDS011;21895;47.072;15.132;2023-04-07T04:27:12;12.20;;;5.37;;
20928;SDS011;21895;47.072;15.132;2023-04-07T04:29:39;11.33;;;5.53;;
20928;SDS011;21895;47.072;15.132;2023-04-07T04:32:05;13.47;;;5.03;;
20928;SDS011;21895;47.072;15.132;2023-04-07T04:34:32;9.33;;;5.10;;
20928;SDS011;21895;47.072;15.132;2023-04-07T04:36:58;19.57;;;7.73;;
20928;SDS011;21895;47.072;15.132;2023-04-07T04:39:25;21.37;;;7.83;;
20928;SDS011;21895;47.072;15.132;2023-04-07T04:41:52;15.63;;;5.90;;
20928;SDS011;21895;47.072;15.132;2023-04-07T04:44:18;14.03;;;6.20;;
20928;SDS011;21895;47.072;15.132;2023-04-07T04:46:45;12.83;;;5.30;;
20928;SDS011;21895;47.072;15.132;2023-04-07T04:49:11;10.77;;;5.23;;
20928;SDS011;21895;47.072;15.132;2023-04-07T04:51:39;11.43;;;5.33;;
20928;SDS011;21895;47.072;15.132;2023-04-07T04:54:05;15.20;;;6.40;;
20928;SDS011;21895;47.072;15.132;2023-04-07T04:56:32;10.00;;;5.47;;
20928;SDS011;21895;47.072;15.132;2023-04-07T04:58:58;12.20;;;5.40;;
20928;SDS011;21895;47.072;15.132;2023-04-07T05:01:25;9.80;;;4.93;;
20928;SDS011;21895;47.072;15.132;2023-04-07T05:03:51;15.90;;;5.03;;
20928;SDS011;21895;47.072;15.132;2023-04-07T05:06:19;15.47;;;5.60;;
20928;SDS011;21895;47.072;15.132;2023-04-07T05:08:45;9.27;;;4.63;;
20928;SDS011;21895;47.072;15.132;2023-04-07T05:11:12;14.30;;;5.67;;
20928;SDS011;21895;47.072;15.132;2023-04-07T05:13:38;24.93;;;5.70;;
20928;SDS011;21895;47.072;15.132;2023-04-07T05:16:05;12.03;;;5.07;;
20928;SDS011;21895;47.072;15.132;2023-04-07T05:18:32;26.73;;;5.37;;
20928;SDS011;21895;47.072;15.132;2023-04-07T05:20:58;21.07;;;5.50;;
20928;SDS011;21895;47.072;15.132;2023-04-07T05:23:26;18.10;;;5.97;;
20928;SDS011;21895;47.072;15.132;2023-04-07T05:25:53;12.37;;;5.40;;
20928;SDS011;21895;47.072;15.132;2023-04-07T05:28:19;34.93;;;6.80;;
20928;SDS011;21895;47.072;15.132;2023-04-07T05:30:46;40.90;;;5.43;;
20928;SDS011;21895;47.072;15.132;2023-04-07T05:33:13;23.00;;;6.23;;
20928;SDS011;21895;47.072;15.132;2023-04-07T05:35:39;21.90;;;5.17;;
20928;SDS011;21895;47.072;15.132;2023-04-07T05:38:06;16.27;;;5.43;;
20928;SDS011;21895;47.072;15.132;2023-04-07T05:40:33;11.87;;;5.07;;
20928;SDS011;21895;47.072;15.132;2023-04-07T05:43:02;12.03;;;4.87;;
20928;SDS011;21895;47.072;15.132;2023-04-07T05:45:29;10.17;;;4.57;;
20928;SDS011;21895;47.072;15.132;2023-04-07T05:47:55;20.97;;;4.83;;
20928;SDS011;21895;47.072;15.132;2023-04-07T05:50:22;11.20;;;4.63;;
20928;SDS011;21895;47.072;15.132;2023-04-07T05:52:48;17.27;;;5.70;;
20928;SDS011;21895;47.072;15.132;2023-04-07T05:55:15;12.50;;;5.80;;
20928;SDS011;21895;47.072;15.132;2023-04-07T05:57:41;14.10;;;6.67;;
20928;SDS011;21895;47.072;15.132;2023-04-07T06:00:08;16.13;;;6.60;;
20928;SDS011;21895;47.072;15.132;2023-04-07T06:02:36;23.63;;;8.60;;
20928;SDS011;21895;47.072;15.132;2023-04-07T06:05:04;19.17;;;7.83;;
20928;SDS011;21895;47.072;15.132;2023-04-07T06:07:32;19.93;;;6.90;;
20928;SDS011;21895;47.072;15.132;2023-04-07T06:09:58;17.23;;;7.10;;
20928;SDS011;21895;47.072;15.132;2023-04-07T06:12:25;14.87;;;6.37;;
20928;SDS011;21895;47.072;15.132;2023-04-07T06:14:52;12.70;;;6.47;;
20928;SDS011;21895;47.072;15.132;2023-04-07T06:17:21;13.97;;;6.20;;
20928;SDS011;21895;47.072;15.132;2023-04-07T06:19:48;11.60;;;6.20;;
20928;SDS011;21895;47.072;15.132;2023-04-07T06:22:15;15.23;;;6.43;;
20928;SDS011;21895;47.072;15.132;2023-04-07T06:24:41;16.10;;;7.20;;
20928;SDS011;21895;47.072;15.132;2023-04-07T06:27:08;20.80;;;7.80;;
20928;SDS011;21895;47.072;15.132;2023-04-07T06:29:34;23.47;;;9.37;;
20928;SDS011;21895;47.072;15.132;2023-04-07T06:32:01;20.33;;;8.90;;
20928;SDS011;21895;47.072;15.132;2023-04-07T06:34:27;20.80;;;9.47;;
20928;SDS011;21895;47.072;15.132;2023-04-07T06:36:54;23.77;;;9.17;;
20928;SDS011;21895;47.072;15.132;2023-04-07T06:39:25;32.40;;;10.80;;
20928;SDS011;21895;47.072;15.132;2023-04-07T06:41:52;21.97;;;9.37;;
20928;SDS011;21895;47.072;15.132;2023-04-07T06:44:18;26.57;;;9.30;;
20928;SDS011;21895;47.072;15.132;2023-04-07T06:46:45;22.80;;;9.27;;
20928;SDS011;21895;47.072;15.132;2023-04-07T06:49:14;20.73;;;8.07;;
20928;SDS011;21895;47.072;15.132;2023-04-07T06:51:41;21.90;;;9.13;;
20928;SDS011;21895;47.072;15.132;2023-04-07T06:54:07;27.20;;;9.87;;
20928;SDS011;21895;47.072;15.132;2023-04-07T06:56:37;30.17;;;9.60;;
20928;SDS011;21895;47.072;15.132;2023-04-07T06:59:04;23.47;;;9.40;;
20928;SDS011;21895;47.072;15.132;2023-04-07T07:01:31;36.10;;;9.83;;
20928;SDS011;21895;47.072;15.132;2023-04-07T07:03:58;23.80;;;9.00;;
20928;SDS011;21895;47.072;15.132;2023-04-07T07:06:26;26.43;;;9.43;;
20928;SDS011;21895;47.072;15.132;2023-04-07T07:08:53;18.23;;;8.23;;
20928;SDS011;21895;47.072;15.132;2023-04-07T07:11:19;19.47;;;8.77;;
20928;SDS011;21895;47.072;15.132;2023-04-07T07:13:45;26.10;;;8.93;;
20928;SDS011;21895;47.072;15.132;2023-04-07T07:16:12;25.87;;;10.67;;
20928;SDS011;21895;47.072;15.132;2023-04-07T07:18:39;26.83;;;9.00;;
20928;SDS011;21895;47.072;15.132;2023-04-07T07:21:05;18.03;;;8.43;;
20928;SDS011;21895;47.072;15.132;2023-04-07T07:23:33;25.60;;;8.87;;
20928;SDS011;21895;47.072;15.132;2023-04-07T07:25:59;16.50;;;8.23;;
20928;SDS011;21895;47.072;15.132;2023-04-07T07:28:27;19.37;;;8.90;;
20928;SDS011;21895;47.072;15.132;2023-04-07T07:30:54;22.47;;;9.00;;
20928;SDS011;21895;47.072;15.132;2023-04-07T07:33:20;18.10;;;8.43;;
20928;SDS011;21895;47.072;15.132;2023-04-07T07:35:47;32.13;;;8.57;;
20928;SDS011;21895;47.072;15.132;2023-04-07T07:38:14;17.70;;;8.93;;
20928;SDS011;21895;47.072;15.132;2023-04-07T07:40:40;25.57;;;8.67;;
20928;SDS011;21895;47.072;15.132;2023-04-07T07:43:07;17.77;;;8.20;;
20928;SDS011;21895;47.072;15.132;2023-04-07T07:45:33;17.07;;;8.13;;
20928;SDS011;21895;47.072;15.132;2023-04-07T07:48:00;34.53;;;9.63;;
20928;SDS011;21895;47.072;15.132;2023-04-07T07:50:26;24.50;;;9.40;;
20928;SDS011;21895;47.072;15.132;2023-04-07T07:52:53;25.00;;;9.57;;
20928;SDS011;21895;47.072;15.132;2023-04-07T07:55:19;33.53;;;9.87;;
20928;SDS011;21895;47.072;15.132;2023-04-07T07:57:46;21.97;;;9.63;;
20928;SDS011;21895;47.072;15.132;2023-04-07T08:00:12;20.53;;;8.93;;
20928;SDS011;21895;47.072;15.132;2023-04-07T08:02:39;17.43;;;8.70;;
20928;SDS011;21895;47.072;15.132;2023-04-07T08:05:06;17.73;;;8.77;;
20928;SDS011;21895;47.072;15.132;2023-04-07T08:07:33;26.90;;;8.80;;
20928;SDS011;21895;47.072;15.132;2023-04-07T08:10:00;19.57;;;9.23;;
20928;SDS011;21895;47.072;15.132;2023-04-07T08:12:26;21.97;;;9.90;;
20928;SDS011;21895;47.072;15.132;2023-04-07T08:14:53;22.33;;;9.77;;
20928;SDS011;21895;47.072;15.132;2023-04-07T08:17:19;32.80;;;10.13;;
20928;SDS011;21895;47.072;15.132;2023-04-07T08:19:46;19.63;;;9.43;;
20928;SDS011;21895;47.072;15.132;2023-04-07T08:22:12;33.50;;;9.07;;
20928;SDS011;21895;47.072;15.132;2023-04-07T08:24:39;18.87;;;8.90;;
20928;SDS011;21895;47.072;15.132;2023-04-07T08:27:06;21.00;;;9.50;;
20928;SDS011;21895;47.072;15.132;2023-04-07T08:29:32;22.17;;;9.00;;
20928;SDS011;21895;47.072;15.132;2023-04-07T08:31:59;21.10;;;9.23;;
20928;SDS011;21895;47.072;15.132;2023-04-07T08:34:25;15.73;;;9.07;;
20928;SDS011;21895;47.072;15.132;2023-04-07T08:36:52;17.23;;;8.43;;
20928;SDS011;21895;47.072;15.132;2023-04-07T08:39:18;19.30;;;8.90;;
20928;SDS011;21895;47.072;15.132;2023-04-07T08:41:45;19.83;;;8.63;;
20928;SDS011;21895;47.072;15.132;2023-04-07T08:44:14;16.17;;;8.23;;
20928;SDS011;21895;47.072;15.132;2023-04-07T08:46:42;19.87;;;9.00;;
20928;SDS011;21895;47.072;15.132;2023-04-07T08:49:11;21.77;;;9.20;;
20928;SDS011;21895;47.072;15.132;2023-04-07T08:51:43;16.00;;;8.30;;
20928;SDS011;21895;47.072;15.132;2023-04-07T08:54:13;16.87;;;7.97;;
20928;SDS011;21895;47.072;15.132;2023-04-07T08:56:46;14.40;;;7.67;;
20928;SDS011;21895;47.072;15.132;2023-04-07T08:59:14;22.67;;;7.20;;
20928;SDS011;21895;47.072;15.132;2023-04-07T09:01:49;10.63;;;6.07;;
20928;SDS011;21895;47.072;15.132;2023-04-07T09:04:17;14.33;;;5.73;;
20928;SDS011;21895;47.072;15.132;2023-04-07T09:06:44;13.13;;;5.63;;
20928;SDS011;21895;47.072;15.132;2023-04-07T09:09:10;8.73;;;5.10;;
20928;SDS011;21895;47.072;15.132;2023-04-07T09:11:39;11.63;;;4.60;;
20928;SDS011;21895;47.072;15.132;2023-04-07T09:14:06;10.93;;;5.27;;
20928;SDS011;21895;47.072;15.132;2023-04-07T09:16:33;10.07;;;4.80;;
20928;SDS011;21895;47.072;15.132;2023-04-07T09:19:00;9.33;;;4.80;;
20928;SDS011;21895;47.072;15.132;2023-04-07T09:21:29;18.27;;;5.30;;
20928;SDS011;21895;47.072;15.132;2023-04-07T09:24:20;8.93;;;4.97;;
20928;SDS011;21895;47.072;15.132;2023-04-07T09:29:45;10.63;;;5.23;;
20928;SDS011;21895;47.072;15.132;2023-04-07T09:32:20;10.13;;;4.97;;
20928;SDS011;21895;47.072;15.132;2023-04-07T09:35:05;9.20;;;4.87;;
20928;SDS011;21895;47.072;15.132;2023-04-07T09:37:32;9.40;;;5.10;;
20928;SDS011;21895;47.072;15.132;2023-04-07T09:39:59;10.47;;;5.20;;
20928;SDS011;21895;47.072;15.132;2023-04-07T09:42:26;8.63;;;4.73;;
20928;SDS011;21895;47.072;15.132;2023-04-07T09:44:57;8.40;;;5.00;;
20928;SDS011;21895;47.072;15.132;2023-04-07T09:47:27;10.93;;;5.23;;
20928;SDS011;21895;47.072;15.132;2023-04-07T09:49:57;8.00;;;4.80;;
20928;SDS011;21895;47.072;15.132;2023-04-07T09:52:59;11.50;;;4.97;;
20928;SDS011;21895;47.072;15.132;2023-04-07T09:55:27;8.40;;;4.67;;
20928;SDS011;21895;47.072;15.132;2023-04-07T09:57:55;8.80;;;5.00;;
20928;SDS011;21895;47.072;15.132;2023-04-07T10:00:22;8.60;;;4.77;;
20928;SDS011;21895;47.072;15.132;2023-04-07T10:02:50;9.90;;;4.67;;
20928;SDS011;21895;47.072;15.132;2023-04-07T10:05:17;9.07;;;4.57;;
20928;SDS011;21895;47.072;15.132;2023-04-07T10:07:47;10.07;;;4.90;;
20928;SDS011;21895;47.072;15.132;2023-04-07T10:10:13;12.57;;;4.27;;
20928;SDS011;21895;47.072;15.132;2023-04-07T10:12:40;7.00;;;4.40;;
20928;SDS011;21895;47.072;15.132;2023-04-07T10:15:08;8.80;;;4.60;;
20928;SDS011;21895;47.072;15.132;2023-04-07T10:17:43;8.23;;;4.53;;
20928;SDS011;21895;47.072;15.132;2023-04-07T10:20:16;6.57;;;4.00;;
20928;SDS011;21895;47.072;15.132;2023-04-07T10:22:45;11.10;;;4.57;;
20928;SDS011;21895;47.072;15.132;2023-04-07T10:25:16;7.57;;;4.03;;
20928;SDS011;21895;47.072;15.132;2023-04-07T10:27:51;6.12;;;4.10;;
20928;SDS011;21895;47.072;15.132;2023-04-07T10:30:29;8.20;;;4.60;;
20928;SDS011;21895;47.072;15.132;2023-04-07T10:32:57;7.07;;;4.10;;
20928;SDS011;21895;47.072;15.132;2023-04-07T10:35:24;9.33;;;4.80;;
20928;SDS011;21895;47.072;15.132;2023-04-07T10:46:01;7.90;;;4.03;;
20928;SDS011;21895;47.072;15.132;2023-04-07T10:48:28;9.97;;;4.70;;
20928;SDS011;21895;47.072;15.132;2023-04-07T10:54:15;6.10;;;4.00;;
20928;SDS011;21895;47.072;15.132;2023-04-07T11:00:13;5.67;;;4.00;;
20928;SDS011;21895;47.072;15.132;2023-04-07T11:02:40;8.67;;;4.47;;
20928;SDS011;21895;47.072;15.132;2023-04-07T11:05:08;8.07;;;3.80;;
20928;SDS011;21895;47.072;15.132;2023-04-07T11:07:48;7.00;;;4.30;;
20928;SDS011;21895;47.072;15.132;2023-04-07T11:10:23;7.70;;;3.33;;
20928;SDS011;21895;47.072;15.132;2023-04-07T11:12:57;6.90;;;4.13;;
20928;SDS011;21895;47.072;15.132;2023-04-07T11:15:26;6.40;;;3.93;;
20928;SDS011;21895;47.072;15.132;2023-04-07T11:22:18;6.37;;;4.00;;
20928;SDS011;21895;47.072;15.132;2023-04-07T11:24:47;6.97;;;3.97;;
20928;SDS011;21895;47.072;15.132;2023-04-07T11:27:14;13.53;;;4.17;;
20928;SDS011;21895;47.072;15.132;2023-04-07T11:29:41;6.60;;;4.30;;
20928;SDS011;21895;47.072;15.132;2023-04-07T11:32:08;7.10;;;4.10;;
20928;SDS011;21895;47.072;15.132;2023-04-07T11:34:37;10.05;;;4.15;;
20928;SDS011;21895;47.072;15.132;2023-04-07T11:37:23;6.87;;;3.70;;
20928;SDS011;21895;47.072;15.132;2023-04-07T11:39:53;10.07;;;4.03;;
20928;SDS011;21895;47.072;15.132;2023-04-07T11:42:34;6.10;;;3.67;;
20928;SDS011;21895;47.072;15.132;2023-04-07T11:45:03;7.47;;;3.90;;
20928;SDS011;21895;47.072;15.132;2023-04-07T11:47:34;8.30;;;3.70;;
20928;SDS011;21895;47.072;15.132;2023-04-07T11:50:02;8.23;;;3.80;;
20928;SDS011;21895;47.072;15.132;2023-04-07T11:52:39;6.12;;;3.90;;
20928;SDS011;21895;47.072;15.132;2023-04-07T11:55:16;16.65;;;3.90;;
20928;SDS011;21895;47.072;15.132;2023-04-07T11:57:49;9.05;;;4.18;;
20928;SDS011;21895;47.072;15.132;2023-04-07T12:00:16;5.93;;;3.72;;
20928;SDS011;21895;47.072;15.132;2023-04-07T12:02:44;8.10;;;4.00;;
20928;SDS011;21895;47.072;15.132;2023-04-07T12:05:12;6.60;;;4.30;;
20928;SDS011;21895;47.072;15.132;2023-04-07T12:07:38;6.97;;;3.67;;
20928;SDS011;21895;47.072;15.132;2023-04-07T12:10:19;9.05;;;3.92;;
20928;SDS011;21895;47.072;15.132;2023-04-07T12:12:47;5.70;;;3.75;;
20928;SDS011;21895;47.072;15.132;2023-04-07T12:15:14;6.47;;;4.03;;
20928;SDS011;21895;47.072;15.132;2023-04-07T12:17:44;9.38;;;3.90;;
20928;SDS011;21895;47.072;15.132;2023-04-07T12:20:13;6.20;;;3.85;;
20928;SDS011;21895;47.072;15.132;2023-04-07T12:22:40;8.60;;;4.60;;
20928;SDS011;21895;47.072;15.132;2023-04-07T12:25:07;6.93;;;4.10;;
20928;SDS011;21895;47.072;15.132;2023-04-07T12:27:34;10.27;;;4.00;;
20928;SDS011;21895;47.072;15.132;2023-04-07T12:30:08;5.75;;;3.53;;
20928;SDS011;21895;47.072;15.132;2023-04-07T12:32:36;5.12;;;3.55;;
20928;SDS011;21895;47.072;15.132;2023-04-07T12:35:02;7.45;;;4.07;;
20928;SDS011;21895;47.072;15.132;2023-04-07T12:37:29;7.15;;;3.40;;
20928;SDS011;21895;47.072;15.132;2023-04-07T12:39:57;5.97;;;3.92;;
20928;SDS011;21895;47.072;15.132;2023-04-07T12:42:24;6.10;;;3.65;;
20928;SDS011;21895;47.072;15.132;2023-04-07T12:44:50;8.65;;;4.15;;
20928;SDS011;21895;47.072;15.132;2023-04-07T12:47:17;6.32;;;4.30;;
20928;SDS011;21895;47.072;15.132;2023-04-07T12:49:44;8.38;;;4.05;;
20928;SDS011;21895;47.072;15.132;2023-04-07T12:52:10;7.72;;;4.07;;
20928;SDS011;21895;47.072;15.132;2023-04-07T12:54:37;6.20;;;4.18;;
20928;SDS011;21895;47.072;15.132;2023-04-07T12:57:03;5.72;;;3.65;;
20928;SDS011;21895;47.072;15.132;2023-04-07T12:59:30;6.62;;;3.90;;
20928;SDS011;21895;47.072;15.132;2023-04-07T13:01:56;6.65;;;3.87;;
20928;SDS011;21895;47.072;15.132;2023-04-07T13:04:23;6.28;;;3.55;;
20928;SDS011;21895;47.072;15.132;2023-04-07T13:06:52;5.15;;;3.42;;
20928;SDS011;21895;47.072;15.132;2023-04-07T13:09:19;5.93;;;3.87;;
20928;SDS011;21895;47.072;15.132;2023-04-07T13:11:45;5.55;;;3.15;;
20928;SDS011;21895;47.072;15.132;2023-04-07T13:14:12;8.43;;;3.60;;
20928;SDS011;21895;47.072;15.132;2023-04-07T13:16:38;5.68;;;3.50;;
20928;SDS011;21895;47.072;15.132;2023-04-07T13:19:05;6.15;;;3.72;;
20928;SDS011;21895;47.072;15.132;2023-04-07T13:21:33;11.90;;;3.90;;
20928;SDS011;21895;47.072;15.132;2023-04-07T13:24:12;7.60;;;4.30;;
20928;SDS011;21895;47.072;15.132;2023-04-07T13:26:39;8.30;;;3.67;;
20928;SDS011;21895;47.072;15.132;2023-04-07T13:29:05;6.00;;;3.67;;
20928;SDS011;21895;47.072;15.132;2023-04-07T13:31:32;5.10;;;3.47;;
20928;SDS011;21895;47.072;15.132;2023-04-07T13:33:58;5.68;;;3.28;;
20928;SDS011;21895;47.072;15.132;2023-04-07T13:36:25;7.62;;;3.70;;
20928;SDS011;21895;47.072;15.132;2023-04-07T13:38:52;5.28;;;3.53;;
20928;SDS011;21895;47.072;15.132;2023-04-07T13:41:19;8.50;;;3.50;;
20928;SDS011;21895;47.072;15.132;2023-04-07T13:43:46;11.90;;;3.85;;
20928;SDS011;21895;47.072;15.132;2023-04-07T13:46:13;6.97;;;3.62;;
20928;SDS011;21895;47.072;15.132;2023-04-07T13:48:53;5.80;;;3.90;;
20928;SDS011;21895;47.072;15.132;2023-04-07T13:51:21;6.18;;;3.60;;
20928;SDS011;21895;47.072;15.132;2023-04-07T13:53:47;4.75;;;3.50;;
20928;SDS011;21895;47.072;15.132;2023-04-07T13:56:14;8.98;;;3.72;;
20928;SDS011;21895;47.072;15.132;2023-04-07T13:58:40;8.27;;;3.40;;
20928;SDS011;21895;47.072;15.132;2023-04-07T14:01:07;5.32;;;3.37;;
20928;SDS011;21895;47.072;15.132;2023-04-07T14:03:34;7.03;;;3.50;;
20928;SDS011;21895;47.072;15.132;2023-04-07T14:06:01;6.35;;;3.50;;
20928;SDS011;21895;47.072;15.132;2023-04-07T14:08:27;6.00;;;4.03;;
20928;SDS011;21895;47.072;15.132;2023-04-07T14:10:54;8.40;;;3.42;;
20928;SDS011;21895;47.072;15.132;2023-04-07T14:13:20;26.90;;;5.00;;
20928;SDS011;21895;47.072;15.132;2023-04-07T14:15:48;5.00;;;2.75;;
20928;SDS011;21895;47.072;15.132;2023-04-07T14:18:15;4.55;;;2.97;;
20928;SDS011;21895;47.072;15.132;2023-04-07T14:20:42;6.55;;;3.20;;
20928;SDS011;21895;47.072;15.132;2023-04-07T14:23:08;5.93;;;3.40;;
20928;SDS011;21895;47.072;15.132;2023-04-07T14:25:35;4.68;;;3.10;;
20928;SDS011;21895;47.072;15.132;2023-04-07T14:28:01;10.20;;;3.42;;
20928;SDS011;21895;47.072;15.132;2023-04-07T14:30:28;5.95;;;3.45;;
20928;SDS011;21895;47.072;15.132;2023-04-07T14:32:55;5.40;;;3.47;;
20928;SDS011;21895;47.072;15.132;2023-04-07T14:35:22;9.38;;;4.00;;
20928;SDS011;21895;47.072;15.132;2023-04-07T14:37:48;13.82;;;4.82;;
20928;SDS011;21895;47.072;15.132;2023-04-07T14:40:16;8.60;;;4.97;;
20928;SDS011;21895;47.072;15.132;2023-04-07T14:42:46;8.83;;;5.43;;
20928;SDS011;21895;47.072;15.132;2023-04-07T14:45:13;10.10;;;5.23;;
20928;SDS011;21895;47.072;15.132;2023-04-07T14:47:40;9.33;;;5.20;;
20928;SDS011;21895;47.072;15.132;2023-04-07T14:50:06;7.30;;;4.50;;
20928;SDS011;21895;47.072;15.132;2023-04-07T14:52:33;10.90;;;5.23;;
20928;SDS011;21895;47.072;15.132;2023-04-07T14:55:00;9.77;;;5.30;;
20928;SDS011;21895;47.072;15.132;2023-04-07T14:57:26;10.10;;;5.30;;
20928;SDS011;21895;47.072;15.132;2023-04-07T14:59:53;16.47;;;5.70;;
20928;SDS011;21895;47.072;15.132;2023-04-07T15:02:19;17.37;;;5.77;;
20928;SDS011;21895;47.072;15.132;2023-04-07T15:04:46;9.23;;;5.50;;
20928;SDS011;21895;47.072;15.132;2023-04-07T15:07:13;11.53;;;5.57;;
20928;SDS011;21895;47.072;15.132;2023-04-07T15:09:39;9.57;;;5.23;;